sensor_id;sensor_type;location;lat;lon;timestamp;P1;durP1;ratioP1;P2;durP2;ratioP2
9860;SDS011;4969;52.304;4.968;2023-02-15T00:00:44;32.42;;;28.08;;
9860;SDS011;4969;52.304;4.968;2023-02-15T00:03:10;31.33;;;27.53;;
9860;SDS011;4969;52.304;4.968;2023-02-15T00:05:37;30.27;;;26.97;;
9860;SDS011;4969;52.304;4.968;2023-02-15T00:08:05;28.52;;;25.52;;
9860;SDS011;4969;52.304;4.968;2023-02-15T00:10:31;29.10;;;25.60;;
9860;SDS011;4969;52.304;4.968;2023-02-15T00:12:59;28.97;;;25.87;;
9860;SDS011;4969;52.304;4.968;2023-02-15T00:15:26;31.63;;;28.08;;
9860;SDS011;4969;52.304;4.968;2023-02-15T00:17:52;33.90;;;28.58;;
9860;SDS011;4969;52.304;4.968;2023-02-15T00:20:19;30.73;;;27.15;;
9860;SDS011;4969;52.304;4.968;2023-02-15T00:22:45;31.85;;;28.42;;
9860;SDS011;4969;52.304;4.968;2023-02-15T00:25:13;32.45;;;28.15;;
9860;SDS011;4969;52.304;4.968;2023-02-15T00:27:40;34.25;;;28.92;;
9860;SDS011;4969;52.304;4.968;2023-02-15T00:30:07;30.40;;;27.17;;
9860;SDS011;4969;52.304;4.968;2023-02-15T00:32:34;32.60;;;27.47;;
9860;SDS011;4969;52.304;4.968;2023-02-15T00:35:00;29.90;;;26.80;;
9860;SDS011;4969;52.304;4.968;2023-02-15T00:37:27;28.10;;;25.13;;
9860;SDS011;4969;52.304;4.968;2023-02-15T00:39:54;31.73;;;28.33;;
9860;SDS011;4969;52.304;4.968;2023-02-15T00:42:21;30.65;;;26.42;;
9860;SDS011;4969;52.304;4.968;2023-02-15T00:44:48;29.20;;;25.92;;
9860;SDS011;4969;52.304;4.968;2023-02-15T00:47:15;30.27;;;27.08;;
9860;SDS011;4969;52.304;4.968;2023-02-15T00:49:41;30.73;;;26.67;;
9860;SDS011;4969;52.304;4.968;2023-02-15T00:52:08;26.98;;;24.08;;
9860;SDS011;4969;52.304;4.968;2023-02-15T00:54:34;27.67;;;24.65;;
9860;SDS011;4969;52.304;4.968;2023-02-15T00:57:03;27.90;;;24.98;;
9860;SDS011;4969;52.304;4.968;2023-02-15T00:59:31;28.67;;;25.35;;
9860;SDS011;4969;52.304;4.968;2023-02-15T01:01:58;28.27;;;25.08;;
9860;SDS011;4969;52.304;4.968;2023-02-15T01:04:24;28.35;;;25.20;;
9860;SDS011;4969;52.304;4.968;2023-02-15T01:06:51;28.42;;;25.42;;
9860;SDS011;4969;52.304;4.968;2023-02-15T01:09:17;29.70;;;25.45;;
9860;SDS011;4969;52.304;4.968;2023-02-15T01:11:44;27.08;;;24.30;;
9860;SDS011;4969;52.304;4.968;2023-02-15T01:14:11;28.15;;;25.15;;
9860;SDS011;4969;52.304;4.968;2023-02-15T01:16:39;26.13;;;23.35;;
9860;SDS011;4969;52.304;4.968;2023-02-15T01:19:06;27.10;;;24.20;;
9860;SDS011;4969;52.304;4.968;2023-02-15T01:21:32;26.90;;;24.08;;
9860;SDS011;4969;52.304;4.968;2023-02-15T01:23:59;25.65;;;22.98;;
9860;SDS011;4969;52.304;4.968;2023-02-15T01:26:26;26.92;;;23.23;;
9860;SDS011;4969;52.304;4.968;2023-02-15T01:28:52;25.63;;;23.00;;
9860;SDS011;4969;52.304;4.968;2023-02-15T01:31:20;27.13;;;24.23;;
9860;SDS011;4969;52.304;4.968;2023-02-15T01:33:48;26.85;;;24.08;;
9860;SDS011;4969;52.304;4.968;2023-02-15T01:36:15;27.65;;;24.77;;
9860;SDS011;4969;52.304;4.968;2023-02-15T01:38:42;27.48;;;23.75;;
9860;SDS011;4969;52.304;4.968;2023-02-15T01:41:09;25.05;;;22.50;;
9860;SDS011;4969;52.304;4.968;2023-02-15T01:43:56;25.67;;;22.98;;
9860;SDS011;4969;52.304;4.968;2023-02-15T01:46:25;24.95;;;22.35;;
9860;SDS011;4969;52.304;4.968;2023-02-15T01:48:58;24.70;;;22.23;;
9860;SDS011;4969;52.304;4.968;2023-02-15T01:51:29;24.42;;;21.83;;
9860;SDS011;4969;52.304;4.968;2023-02-15T01:53:59;25.75;;;22.52;;
9860;SDS011;4969;52.304;4.968;2023-02-15T01:56:29;25.35;;;22.65;;
9860;SDS011;4969;52.304;4.968;2023-02-15T01:59:00;23.88;;;21.38;;
9860;SDS011;4969;52.304;4.968;2023-02-15T02:01:30;23.83;;;21.42;;
9860;SDS011;4969;52.304;4.968;2023-02-15T02:04:00;22.75;;;20.13;;
9860;SDS011;4969;52.304;4.968;2023-02-15T02:06:32;23.60;;;21.05;;
9860;SDS011;4969;52.304;4.968;2023-02-15T02:09:00;23.02;;;20.73;;
9860;SDS011;4969;52.304;4.968;2023-02-15T02:11:27;23.52;;;20.10;;
9860;SDS011;4969;52.304;4.968;2023-02-15T02:13:54;25.20;;;22.55;;
9860;SDS011;4969;52.304;4.968;2023-02-15T02:16:23;24.02;;;21.45;;
9860;SDS011;4969;52.304;4.968;2023-02-15T02:18:58;22.45;;;20.15;;
9860;SDS011;4969;52.304;4.968;2023-02-15T02:21:40;23.27;;;20.80;;
9860;SDS011;4969;52.304;4.968;2023-02-15T02:24:23;24.13;;;21.52;;
9860;SDS011;4969;52.304;4.968;2023-02-15T02:27:19;23.35;;;20.95;;
9860;SDS011;4969;52.304;4.968;2023-02-15T02:33:11;22.23;;;19.83;;
9860;SDS011;4969;52.304;4.968;2023-02-15T02:35:48;22.38;;;20.08;;
9860;SDS011;4969;52.304;4.968;2023-02-15T02:38:24;23.50;;;21.10;;
9860;SDS011;4969;52.304;4.968;2023-02-15T02:40:56;20.25;;;18.15;;
9860;SDS011;4969;52.304;4.968;2023-02-15T02:43:33;22.85;;;20.38;;
9860;SDS011;4969;52.304;4.968;2023-02-15T02:46:06;22.42;;;20.10;;
9860;SDS011;4969;52.304;4.968;2023-02-15T02:48:40;21.60;;;19.10;;
9860;SDS011;4969;52.304;4.968;2023-02-15T02:51:07;20.98;;;18.95;;
9860;SDS011;4969;52.304;4.968;2023-02-15T02:53:33;22.35;;;20.08;;
9860;SDS011;4969;52.304;4.968;2023-02-15T02:56:02;21.70;;;19.50;;
9860;SDS011;4969;52.304;4.968;2023-02-15T02:58:37;21.23;;;19.10;;
9860;SDS011;4969;52.304;4.968;2023-02-15T03:01:09;21.40;;;19.10;;
9860;SDS011;4969;52.304;4.968;2023-02-15T03:03:41;22.52;;;20.13;;
9860;SDS011;4969;52.304;4.968;2023-02-15T03:06:11;21.25;;;19.05;;
9860;SDS011;4969;52.304;4.968;2023-02-15T03:08:43;19.80;;;17.80;;
9860;SDS011;4969;52.304;4.968;2023-02-15T03:11:12;20.30;;;18.30;;
9860;SDS011;4969;52.304;4.968;2023-02-15T03:13:39;20.25;;;18.17;;
9860;SDS011;4969;52.304;4.968;2023-02-15T03:16:06;21.23;;;19.02;;
9860;SDS011;4969;52.304;4.968;2023-02-15T03:18:55;19.63;;;17.58;;
9860;SDS011;4969;52.304;4.968;2023-02-15T03:21:27;20.38;;;18.38;;
9860;SDS011;4969;52.304;4.968;2023-02-15T03:24:00;19.13;;;17.17;;
9860;SDS011;4969;52.304;4.968;2023-02-15T03:26:33;18.80;;;17.00;;
9860;SDS011;4969;52.304;4.968;2023-02-15T03:29:01;18.35;;;16.50;;
9860;SDS011;4969;52.304;4.968;2023-02-15T03:31:32;20.02;;;18.02;;
9860;SDS011;4969;52.304;4.968;2023-02-15T03:34:04;19.42;;;17.42;;
9860;SDS011;4969;52.304;4.968;2023-02-15T03:36:36;19.88;;;17.77;;
9860;SDS011;4969;52.304;4.968;2023-02-15T03:39:10;19.88;;;17.92;;
9860;SDS011;4969;52.304;4.968;2023-02-15T03:41:42;20.35;;;17.92;;
9860;SDS011;4969;52.304;4.968;2023-02-15T03:44:15;18.27;;;16.42;;
9860;SDS011;4969;52.304;4.968;2023-02-15T03:46:49;19.27;;;17.40;;
9860;SDS011;4969;52.304;4.968;2023-02-15T03:49:21;18.75;;;16.90;;
9860;SDS011;4969;52.304;4.968;2023-02-15T03:51:51;18.38;;;16.48;;
9860;SDS011;4969;52.304;4.968;2023-02-15T03:54:22;18.75;;;16.95;;
9860;SDS011;4969;52.304;4.968;2023-02-15T03:57:11;17.98;;;16.08;;
9860;SDS011;4969;52.304;4.968;2023-02-15T03:59:58;18.98;;;17.08;;
9860;SDS011;4969;52.304;4.968;2023-02-15T04:02:45;18.33;;;16.48;;
9860;SDS011;4969;52.304;4.968;2023-02-15T04:05:22;17.60;;;15.90;;
9860;SDS011;4969;52.304;4.968;2023-02-15T04:07:49;18.73;;;16.67;;
9860;SDS011;4969;52.304;4.968;2023-02-15T04:10:15;17.75;;;15.85;;
9860;SDS011;4969;52.304;4.968;2023-02-15T04:13:00;18.83;;;17.02;;
9860;SDS011;4969;52.304;4.968;2023-02-15T04:15:26;19.13;;;17.23;;
9860;SDS011;4969;52.304;4.968;2023-02-15T04:18:10;17.58;;;15.75;;
9860;SDS011;4969;52.304;4.968;2023-02-15T04:20:38;17.70;;;15.93;;
9860;SDS011;4969;52.304;4.968;2023-02-15T04:23:22;18.35;;;15.75;;
9860;SDS011;4969;52.304;4.968;2023-02-15T04:26:06;17.77;;;15.57;;
9860;SDS011;4969;52.304;4.968;2023-02-15T04:28:33;17.52;;;15.82;;
9860;SDS011;4969;52.304;4.968;2023-02-15T04:30:59;18.27;;;16.45;;
9860;SDS011;4969;52.304;4.968;2023-02-15T04:33:26;17.45;;;15.23;;
9860;SDS011;4969;52.304;4.968;2023-02-15T04:35:54;17.73;;;15.80;;
9860;SDS011;4969;52.304;4.968;2023-02-15T04:38:21;16.80;;;15.20;;
9860;SDS011;4969;52.304;4.968;2023-02-15T04:40:49;17.85;;;16.15;;
9860;SDS011;4969;52.304;4.968;2023-02-15T04:43:16;18.20;;;16.30;;
9860;SDS011;4969;52.304;4.968;2023-02-15T04:45:46;18.30;;;16.52;;
9860;SDS011;4969;52.304;4.968;2023-02-15T04:48:14;18.23;;;16.35;;
9860;SDS011;4969;52.304;4.968;2023-02-15T04:50:40;19.05;;;16.02;;
9860;SDS011;4969;52.304;4.968;2023-02-15T04:53:08;16.48;;;14.88;;
9860;SDS011;4969;52.304;4.968;2023-02-15T04:55:35;18.13;;;15.43;;
9860;SDS011;4969;52.304;4.968;2023-02-15T04:58:02;16.35;;;14.73;;
9860;SDS011;4969;52.304;4.968;2023-02-15T05:00:28;16.92;;;15.13;;
9860;SDS011;4969;52.304;4.968;2023-02-15T05:02:55;15.95;;;14.45;;
9860;SDS011;4969;52.304;4.968;2023-02-15T05:05:21;18.05;;;16.00;;
9860;SDS011;4969;52.304;4.968;2023-02-15T05:07:48;17.60;;;15.77;;
9860;SDS011;4969;52.304;4.968;2023-02-15T05:10:16;17.48;;;15.68;;
9860;SDS011;4969;52.304;4.968;2023-02-15T05:12:43;15.80;;;14.27;;
9860;SDS011;4969;52.304;4.968;2023-02-15T05:15:09;16.35;;;14.75;;
9860;SDS011;4969;52.304;4.968;2023-02-15T05:17:36;16.30;;;14.60;;
9860;SDS011;4969;52.304;4.968;2023-02-15T05:20:03;17.42;;;15.73;;
9860;SDS011;4969;52.304;4.968;2023-02-15T05:22:30;16.67;;;15.07;;
9860;SDS011;4969;52.304;4.968;2023-02-15T05:24:57;16.67;;;14.95;;
9860;SDS011;4969;52.304;4.968;2023-02-15T05:27:42;17.33;;;15.60;;
9860;SDS011;4969;52.304;4.968;2023-02-15T05:30:26;17.65;;;15.35;;
9860;SDS011;4969;52.304;4.968;2023-02-15T05:32:53;17.05;;;15.30;;
9860;SDS011;4969;52.304;4.968;2023-02-15T05:35:20;17.00;;;15.30;;
9860;SDS011;4969;52.304;4.968;2023-02-15T05:37:46;20.27;;;18.00;;
9860;SDS011;4969;52.304;4.968;2023-02-15T05:40:13;20.63;;;18.63;;
9860;SDS011;4969;52.304;4.968;2023-02-15T05:42:39;19.77;;;17.87;;
9860;SDS011;4969;52.304;4.968;2023-02-15T05:45:08;20.63;;;18.50;;
9860;SDS011;4969;52.304;4.968;2023-02-15T05:47:34;21.70;;;19.07;;
9860;SDS011;4969;52.304;4.968;2023-02-15T05:50:01;22.73;;;20.23;;
9860;SDS011;4969;52.304;4.968;2023-02-15T05:52:28;21.03;;;18.93;;
9860;SDS011;4969;52.304;4.968;2023-02-15T05:54:54;20.50;;;18.40;;
9860;SDS011;4969;52.304;4.968;2023-02-15T05:57:21;23.13;;;20.10;;
9860;SDS011;4969;52.304;4.968;2023-02-15T05:59:47;23.23;;;20.33;;
9860;SDS011;4969;52.304;4.968;2023-02-15T06:02:15;25.93;;;20.87;;
9860;SDS011;4969;52.304;4.968;2023-02-15T06:04:42;21.67;;;19.40;;
9860;SDS011;4969;52.304;4.968;2023-02-15T06:07:09;23.50;;;20.13;;
9860;SDS011;4969;52.304;4.968;2023-02-15T06:09:35;21.73;;;19.43;;
9860;SDS011;4969;52.304;4.968;2023-02-15T06:12:02;25.30;;;21.20;;
9860;SDS011;4969;52.304;4.968;2023-02-15T06:14:29;24.63;;;20.40;;
9860;SDS011;4969;52.304;4.968;2023-02-15T06:16:55;25.20;;;21.47;;
9860;SDS011;4969;52.304;4.968;2023-02-15T06:19:23;23.03;;;20.17;;
9860;SDS011;4969;52.304;4.968;2023-02-15T06:21:50;25.33;;;21.97;;
9860;SDS011;4969;52.304;4.968;2023-02-15T06:24:16;23.00;;;20.67;;
9860;SDS011;4969;52.304;4.968;2023-02-15T06:26:43;21.90;;;19.50;;
9860;SDS011;4969;52.304;4.968;2023-02-15T06:29:10;23.53;;;21.03;;
9860;SDS011;4969;52.304;4.968;2023-02-15T06:31:36;26.73;;;21.07;;
9860;SDS011;4969;52.304;4.968;2023-02-15T06:34:03;22.40;;;19.87;;
9860;SDS011;4969;52.304;4.968;2023-02-15T06:36:31;24.40;;;21.07;;
9860;SDS011;4969;52.304;4.968;2023-02-15T06:38:57;23.77;;;20.73;;
9860;SDS011;4969;52.304;4.968;2023-02-15T06:41:24;26.57;;;22.57;;
9860;SDS011;4969;52.304;4.968;2023-02-15T06:43:51;28.10;;;22.20;;
9860;SDS011;4969;52.304;4.968;2023-02-15T06:46:17;23.67;;;21.10;;
9860;SDS011;4969;52.304;4.968;2023-02-15T06:48:44;26.70;;;21.90;;
9860;SDS011;4969;52.304;4.968;2023-02-15T06:51:11;24.10;;;21.10;;
9860;SDS011;4969;52.304;4.968;2023-02-15T06:53:39;24.20;;;20.23;;
9860;SDS011;4969;52.304;4.968;2023-02-15T06:56:08;23.70;;;19.67;;
9860;SDS011;4969;52.304;4.968;2023-02-15T06:58:35;23.13;;;20.47;;
9860;SDS011;4969;52.304;4.968;2023-02-15T07:01:02;25.13;;;21.43;;
9860;SDS011;4969;52.304;4.968;2023-02-15T07:03:29;26.60;;;22.33;;
9860;SDS011;4969;52.304;4.968;2023-02-15T07:05:56;28.80;;;22.90;;
9860;SDS011;4969;52.304;4.968;2023-02-15T07:08:24;24.30;;;21.77;;
9860;SDS011;4969;52.304;4.968;2023-02-15T07:10:54;24.60;;;20.80;;
9860;SDS011;4969;52.304;4.968;2023-02-15T07:13:41;25.67;;;21.77;;
9860;SDS011;4969;52.304;4.968;2023-02-15T07:16:08;27.23;;;21.77;;
9860;SDS011;4969;52.304;4.968;2023-02-15T07:18:34;30.10;;;23.03;;
9860;SDS011;4969;52.304;4.968;2023-02-15T07:21:01;25.43;;;21.00;;
9860;SDS011;4969;52.304;4.968;2023-02-15T07:23:28;27.87;;;22.40;;
9860;SDS011;4969;52.304;4.968;2023-02-15T07:25:57;28.60;;;22.77;;
9860;SDS011;4969;52.304;4.968;2023-02-15T07:28:24;27.20;;;23.40;;
9860;SDS011;4969;52.304;4.968;2023-02-15T07:30:51;27.07;;;23.00;;
9860;SDS011;4969;52.304;4.968;2023-02-15T07:33:18;30.80;;;23.57;;
9860;SDS011;4969;52.304;4.968;2023-02-15T07:35:52;28.77;;;24.57;;
9860;SDS011;4969;52.304;4.968;2023-02-15T07:38:20;31.93;;;25.20;;
9860;SDS011;4969;52.304;4.968;2023-02-15T07:40:47;30.80;;;25.27;;
9860;SDS011;4969;52.304;4.968;2023-02-15T07:43:15;30.23;;;24.93;;
9860;SDS011;4969;52.304;4.968;2023-02-15T07:45:42;30.13;;;24.57;;
9860;SDS011;4969;52.304;4.968;2023-02-15T07:48:09;30.90;;;25.00;;
9860;SDS011;4969;52.304;4.968;2023-02-15T07:50:36;31.43;;;24.60;;
9860;SDS011;4969;52.304;4.968;2023-02-15T07:53:02;30.20;;;24.63;;
9860;SDS011;4969;52.304;4.968;2023-02-15T07:55:29;33.77;;;24.63;;
9860;SDS011;4969;52.304;4.968;2023-02-15T07:57:56;29.57;;;25.10;;
9860;SDS011;4969;52.304;4.968;2023-02-15T08:00:24;31.97;;;27.03;;
9860;SDS011;4969;52.304;4.968;2023-02-15T08:02:52;33.90;;;26.57;;
9860;SDS011;4969;52.304;4.968;2023-02-15T08:05:33;27.60;;;23.43;;
9860;SDS011;4969;52.304;4.968;2023-02-15T08:08:00;33.47;;;25.60;;
9860;SDS011;4969;52.304;4.968;2023-02-15T08:10:27;35.23;;;26.83;;
9860;SDS011;4969;52.304;4.968;2023-02-15T08:13:07;27.17;;;22.27;;
9860;SDS011;4969;52.304;4.968;2023-02-15T08:15:35;30.93;;;23.20;;
9860;SDS011;4969;52.304;4.968;2023-02-15T08:18:02;25.23;;;20.70;;
9860;SDS011;4969;52.304;4.968;2023-02-15T08:20:28;34.53;;;26.37;;
9860;SDS011;4969;52.304;4.968;2023-02-15T08:22:55;34.33;;;27.03;;
9860;SDS011;4969;52.304;4.968;2023-02-15T08:25:22;34.97;;;26.10;;
9860;SDS011;4969;52.304;4.968;2023-02-15T08:27:49;35.63;;;27.77;;
9860;SDS011;4969;52.304;4.968;2023-02-15T08:30:15;32.50;;;27.50;;
9860;SDS011;4969;52.304;4.968;2023-02-15T08:32:43;35.47;;;27.93;;
9860;SDS011;4969;52.304;4.968;2023-02-15T08:35:10;38.60;;;28.93;;
9860;SDS011;4969;52.304;4.968;2023-02-15T08:37:37;36.43;;;28.83;;
9860;SDS011;4969;52.304;4.968;2023-02-15T08:40:05;35.40;;;28.57;;
9860;SDS011;4969;52.304;4.968;2023-02-15T08:42:32;29.93;;;22.00;;
9860;SDS011;4969;52.304;4.968;2023-02-15T08:44:59;34.50;;;27.77;;
9860;SDS011;4969;52.304;4.968;2023-02-15T08:47:26;39.20;;;29.17;;
9860;SDS011;4969;52.304;4.968;2023-02-15T08:49:54;28.13;;;23.90;;
9860;SDS011;4969;52.304;4.968;2023-02-15T08:52:21;28.73;;;24.90;;
9860;SDS011;4969;52.304;4.968;2023-02-15T08:54:48;30.50;;;23.63;;
9860;SDS011;4969;52.304;4.968;2023-02-15T08:57:14;33.90;;;28.37;;
9860;SDS011;4969;52.304;4.968;2023-02-15T08:59:41;34.07;;;28.03;;
9860;SDS011;4969;52.304;4.968;2023-02-15T09:02:09;31.67;;;25.07;;
9860;SDS011;4969;52.304;4.968;2023-02-15T09:04:36;37.37;;;29.30;;
9860;SDS011;4969;52.304;4.968;2023-02-15T09:07:04;33.20;;;27.13;;
9860;SDS011;4969;52.304;4.968;2023-02-15T09:09:30;33.17;;;28.50;;
9860;SDS011;4969;52.304;4.968;2023-02-15T09:11:57;38.23;;;30.67;;
9860;SDS011;4969;52.304;4.968;2023-02-15T09:14:24;38.20;;;31.67;;
9860;SDS011;4969;52.304;4.968;2023-02-15T09:16:51;35.47;;;29.53;;
9860;SDS011;4969;52.304;4.968;2023-02-15T09:19:19;36.27;;;29.67;;
9860;SDS011;4969;52.304;4.968;2023-02-15T09:21:47;38.40;;;31.17;;
9860;SDS011;4969;52.304;4.968;2023-02-15T09:24:15;34.80;;;29.50;;
9860;SDS011;4969;52.304;4.968;2023-02-15T09:26:43;38.73;;;30.23;;
9860;SDS011;4969;52.304;4.968;2023-02-15T09:29:13;30.83;;;24.77;;
9860;SDS011;4969;52.304;4.968;2023-02-15T09:31:41;26.40;;;21.70;;
9860;SDS011;4969;52.304;4.968;2023-02-15T09:34:10;33.57;;;25.53;;
9860;SDS011;4969;52.304;4.968;2023-02-15T09:36:38;33.20;;;27.07;;
9860;SDS011;4969;52.304;4.968;2023-02-15T09:39:06;34.63;;;25.43;;
9860;SDS011;4969;52.304;4.968;2023-02-15T09:41:40;29.73;;;23.97;;
9860;SDS011;4969;52.304;4.968;2023-02-15T09:44:21;25.60;;;21.87;;
9860;SDS011;4969;52.304;4.968;2023-02-15T09:47:03;28.33;;;23.67;;
9860;SDS011;4969;52.304;4.968;2023-02-15T09:49:40;31.23;;;24.07;;
9860;SDS011;4969;52.304;4.968;2023-02-15T09:52:19;31.10;;;25.20;;
9860;SDS011;4969;52.304;4.968;2023-02-15T09:54:55;32.80;;;25.03;;
9860;SDS011;4969;52.304;4.968;2023-02-15T09:57:36;33.43;;;27.00;;
9860;SDS011;4969;52.304;4.968;2023-02-15T10:00:09;32.20;;;28.73;;
9860;SDS011;4969;52.304;4.968;2023-02-15T10:02:48;34.50;;;28.03;;
9860;SDS011;4969;52.304;4.968;2023-02-15T10:05:25;32.47;;;27.77;;
9860;SDS011;4969;52.304;4.968;2023-02-15T10:08:22;34.33;;;27.57;;
9860;SDS011;4969;52.304;4.968;2023-02-15T10:10:57;34.73;;;27.73;;
9860;SDS011;4969;52.304;4.968;2023-02-15T10:13:48;34.40;;;27.23;;
9860;SDS011;4969;52.304;4.968;2023-02-15T10:16:25;34.37;;;28.50;;
9860;SDS011;4969;52.304;4.968;2023-02-15T10:19:02;35.97;;;29.13;;
9860;SDS011;4969;52.304;4.968;2023-02-15T10:21:39;31.53;;;27.50;;
9860;SDS011;4969;52.304;4.968;2023-02-15T10:24:23;32.10;;;27.27;;
9860;SDS011;4969;52.304;4.968;2023-02-15T10:27:02;31.93;;;27.63;;
9860;SDS011;4969;52.304;4.968;2023-02-15T10:29:38;34.67;;;26.33;;
9860;SDS011;4969;52.304;4.968;2023-02-15T10:32:10;30.90;;;25.90;;
9860;SDS011;4969;52.304;4.968;2023-02-15T10:34:47;32.10;;;27.60;;
9860;SDS011;4969;52.304;4.968;2023-02-15T10:37:21;32.90;;;28.13;;
9860;SDS011;4969;52.304;4.968;2023-02-15T10:40:10;34.47;;;27.83;;
9860;SDS011;4969;52.304;4.968;2023-02-15T10:42:49;32.27;;;27.37;;
9860;SDS011;4969;52.304;4.968;2023-02-15T10:45:31;33.37;;;27.33;;
9860;SDS011;4969;52.304;4.968;2023-02-15T10:48:13;30.98;;;26.90;;
9860;SDS011;4969;52.304;4.968;2023-02-15T10:50:52;32.93;;;28.07;;
9860;SDS011;4969;52.304;4.968;2023-02-15T10:56:24;33.37;;;28.17;;
9860;SDS011;4969;52.304;4.968;2023-02-15T10:59:04;33.90;;;28.70;;
9860;SDS011;4969;52.304;4.968;2023-02-15T11:01:43;33.30;;;27.70;;
9860;SDS011;4969;52.304;4.968;2023-02-15T11:04:30;35.50;;;27.87;;
9860;SDS011;4969;52.304;4.968;2023-02-15T11:07:06;32.93;;;26.37;;
9860;SDS011;4969;52.304;4.968;2023-02-15T11:09:41;36.47;;;27.77;;
9860;SDS011;4969;52.304;4.968;2023-02-15T11:12:12;35.07;;;28.10;;
9860;SDS011;4969;52.304;4.968;2023-02-15T11:14:43;33.50;;;28.20;;
9860;SDS011;4969;52.304;4.968;2023-02-15T11:17:16;32.15;;;25.58;;
9860;SDS011;4969;52.304;4.968;2023-02-15T11:19:48;33.33;;;29.20;;
9860;SDS011;4969;52.304;4.968;2023-02-15T11:22:20;55.92;;;44.22;;
9860;SDS011;4969;52.304;4.968;2023-02-15T11:24:47;33.03;;;27.63;;
9860;SDS011;4969;52.304;4.968;2023-02-15T11:27:17;33.58;;;29.38;;
9860;SDS011;4969;52.304;4.968;2023-02-15T11:29:50;37.70;;;31.58;;
9860;SDS011;4969;52.304;4.968;2023-02-15T11:32:25;33.72;;;29.02;;
9860;SDS011;4969;52.304;4.968;2023-02-15T11:34:55;42.60;;;35.73;;
9860;SDS011;4969;52.304;4.968;2023-02-15T11:37:28;40.10;;;32.83;;
9860;SDS011;4969;52.304;4.968;2023-02-15T11:40:00;51.63;;;39.73;;
9860;SDS011;4969;52.304;4.968;2023-02-15T11:42:28;51.80;;;42.70;;
9860;SDS011;4969;52.304;4.968;2023-02-15T11:44:58;45.00;;;36.87;;
9860;SDS011;4969;52.304;4.968;2023-02-15T11:47:29;50.58;;;39.95;;
9860;SDS011;4969;52.304;4.968;2023-02-15T11:49:56;34.47;;;29.07;;
9860;SDS011;4969;52.304;4.968;2023-02-15T11:52:23;34.60;;;30.23;;
9860;SDS011;4969;52.304;4.968;2023-02-15T11:54:50;50.17;;;39.50;;
9860;SDS011;4969;52.304;4.968;2023-02-15T11:57:20;43.50;;;36.47;;
9860;SDS011;4969;52.304;4.968;2023-02-15T11:59:53;38.57;;;30.97;;
9860;SDS011;4969;52.304;4.968;2023-02-15T12:02:23;45.70;;;36.93;;
9860;SDS011;4969;52.304;4.968;2023-02-15T12:04:53;47.72;;;38.92;;
9860;SDS011;4969;52.304;4.968;2023-02-15T12:07:23;39.45;;;34.15;;
9860;SDS011;4969;52.304;4.968;2023-02-15T12:09:55;43.58;;;33.40;;
9860;SDS011;4969;52.304;4.968;2023-02-15T12:12:27;36.20;;;30.13;;
9860;SDS011;4969;52.304;4.968;2023-02-15T12:14:55;42.28;;;33.63;;
9860;SDS011;4969;52.304;4.968;2023-02-15T12:17:23;44.13;;;36.05;;
9860;SDS011;4969;52.304;4.968;2023-02-15T12:19:54;42.17;;;36.88;;
9860;SDS011;4969;52.304;4.968;2023-02-15T12:22:24;45.38;;;36.85;;
9860;SDS011;4969;52.304;4.968;2023-02-15T12:24:52;46.17;;;36.80;;
9860;SDS011;4969;52.304;4.968;2023-02-15T12:27:22;47.80;;;37.20;;
9860;SDS011;4969;52.304;4.968;2023-02-15T12:29:53;44.63;;;37.67;;
9860;SDS011;4969;52.304;4.968;2023-02-15T12:32:23;42.83;;;37.95;;
9860;SDS011;4969;52.304;4.968;2023-02-15T12:34:51;42.85;;;33.90;;
9860;SDS011;4969;52.304;4.968;2023-02-15T12:37:28;49.38;;;37.90;;
9860;SDS011;4969;52.304;4.968;2023-02-15T12:39:59;41.13;;;35.08;;
9860;SDS011;4969;52.304;4.968;2023-02-15T12:42:40;39.35;;;32.97;;
9860;SDS011;4969;52.304;4.968;2023-02-15T12:45:19;41.90;;;35.25;;
9860;SDS011;4969;52.304;4.968;2023-02-15T12:47:49;44.20;;;36.13;;
9860;SDS011;4969;52.304;4.968;2023-02-15T12:50:37;44.58;;;35.17;;
9860;SDS011;4969;52.304;4.968;2023-02-15T12:53:06;42.85;;;34.40;;
9860;SDS011;4969;52.304;4.968;2023-02-15T12:55:34;37.50;;;32.80;;
9860;SDS011;4969;52.304;4.968;2023-02-15T12:58:05;42.47;;;34.88;;
9860;SDS011;4969;52.304;4.968;2023-02-15T13:00:32;42.78;;;34.78;;
9860;SDS011;4969;52.304;4.968;2023-02-15T13:02:59;42.63;;;34.42;;
9860;SDS011;4969;52.304;4.968;2023-02-15T13:05:29;41.17;;;34.20;;
9860;SDS011;4969;52.304;4.968;2023-02-15T13:08:00;39.25;;;33.60;;
9860;SDS011;4969;52.304;4.968;2023-02-15T13:10:29;38.83;;;33.47;;
9860;SDS011;4969;52.304;4.968;2023-02-15T13:12:59;38.35;;;33.63;;
9860;SDS011;4969;52.304;4.968;2023-02-15T13:15:32;40.05;;;32.60;;
9860;SDS011;4969;52.304;4.968;2023-02-15T13:18:01;39.08;;;33.53;;
9860;SDS011;4969;52.304;4.968;2023-02-15T13:20:30;39.00;;;34.00;;
9860;SDS011;4969;52.304;4.968;2023-02-15T13:23:03;41.45;;;35.63;;
9860;SDS011;4969;52.304;4.968;2023-02-15T13:25:35;40.78;;;34.53;;
9860;SDS011;4969;52.304;4.968;2023-02-15T13:28:10;45.33;;;37.03;;
9860;SDS011;4969;52.304;4.968;2023-02-15T13:30:42;41.07;;;35.73;;
9860;SDS011;4969;52.304;4.968;2023-02-15T13:33:13;42.30;;;36.63;;
9860;SDS011;4969;52.304;4.968;2023-02-15T13:35:46;43.30;;;34.83;;
9860;SDS011;4969;52.304;4.968;2023-02-15T13:38:26;43.90;;;36.50;;
9860;SDS011;4969;52.304;4.968;2023-02-15T13:41:06;45.30;;;35.20;;
9860;SDS011;4969;52.304;4.968;2023-02-15T13:43:41;43.38;;;36.13;;
9860;SDS011;4969;52.304;4.968;2023-02-15T13:46:23;43.60;;;34.77;;
9860;SDS011;4969;52.304;4.968;2023-02-15T13:48:59;40.28;;;34.30;;
9860;SDS011;4969;52.304;4.968;2023-02-15T13:51:36;42.05;;;34.35;;
9860;SDS011;4969;52.304;4.968;2023-02-15T13:54:15;46.83;;;37.65;;
9860;SDS011;4969;52.304;4.968;2023-02-15T13:56:58;40.88;;;34.47;;
9860;SDS011;4969;52.304;4.968;2023-02-15T13:59:46;43.25;;;35.88;;
9860;SDS011;4969;52.304;4.968;2023-02-15T14:05:28;41.63;;;36.25;;
9860;SDS011;4969;52.304;4.968;2023-02-15T14:08:16;45.35;;;35.83;;
9860;SDS011;4969;52.304;4.968;2023-02-15T14:10:49;44.00;;;35.38;;
9860;SDS011;4969;52.304;4.968;2023-02-15T14:13:32;41.22;;;35.38;;
9860;SDS011;4969;52.304;4.968;2023-02-15T14:16:19;43.50;;;35.20;;
9860;SDS011;4969;52.304;4.968;2023-02-15T14:18:54;42.30;;;35.72;;
9860;SDS011;4969;52.304;4.968;2023-02-15T14:21:25;42.25;;;35.65;;
9860;SDS011;4969;52.304;4.968;2023-02-15T14:23:59;39.25;;;34.70;;
9860;SDS011;4969;52.304;4.968;2023-02-15T14:26:37;39.58;;;34.65;;
9860;SDS011;4969;52.304;4.968;2023-02-15T14:29:16;42.25;;;35.17;;
9860;SDS011;4969;52.304;4.968;2023-02-15T14:31:51;42.88;;;33.63;;
9860;SDS011;4969;52.304;4.968;2023-02-15T14:34:21;42.65;;;35.58;;
9860;SDS011;4969;52.304;4.968;2023-02-15T14:36:51;40.22;;;35.85;;
9860;SDS011;4969;52.304;4.968;2023-02-15T14:39:23;40.65;;;35.33;;
9860;SDS011;4969;52.304;4.968;2023-02-15T14:42:18;41.75;;;34.53;;
9860;SDS011;4969;52.304;4.968;2023-02-15T14:44:52;39.28;;;34.22;;
9860;SDS011;4969;52.304;4.968;2023-02-15T14:47:25;42.50;;;33.80;;
9860;SDS011;4969;52.304;4.968;2023-02-15T14:49:58;38.95;;;33.53;;
9860;SDS011;4969;52.304;4.968;2023-02-15T14:52:24;38.38;;;34.05;;
9860;SDS011;4969;52.304;4.968;2023-02-15T14:57:34;39.40;;;34.13;;
9860;SDS011;4969;52.304;4.968;2023-02-15T15:00:03;38.78;;;34.30;;
9860;SDS011;4969;52.304;4.968;2023-02-15T15:02:51;41.13;;;33.58;;
9860;SDS011;4969;52.304;4.968;2023-02-15T15:05:20;38.88;;;31.83;;
9860;SDS011;4969;52.304;4.968;2023-02-15T15:07:51;43.15;;;33.53;;
9860;SDS011;4969;52.304;4.968;2023-02-15T15:10:40;42.83;;;34.45;;
9860;SDS011;4969;52.304;4.968;2023-02-15T15:16:24;40.85;;;33.90;;
9860;SDS011;4969;52.304;4.968;2023-02-15T15:22:16;42.93;;;33.67;;
9860;SDS011;4969;52.304;4.968;2023-02-15T15:24:48;44.00;;;33.47;;
9860;SDS011;4969;52.304;4.968;2023-02-15T15:39:21;39.63;;;30.77;;
9860;SDS011;4969;52.304;4.968;2023-02-15T15:42:11;39.50;;;32.92;;